createdAt,value
2022-12-06T00:00:17.583Z,4.70
2022-12-06T00:00:49.778Z,4.40
2022-12-06T00:01:23.775Z,4.90
2022-12-06T00:01:57.028Z,5.32
2022-12-06T00:02:28.952Z,4.32
2022-12-06T00:03:00.840Z,4.90
2022-12-06T00:03:33.962Z,4.38
2022-12-06T00:04:08.088Z,4.75
2022-12-06T00:04:40.897Z,4.65
2022-12-06T00:05:12.678Z,4.50
2022-12-06T00:05:46.361Z,5.20
2022-12-06T00:06:22.181Z,4.10
2022-12-06T00:06:54.656Z,4.07
2022-12-06T00:07:26.473Z,4.50
2022-12-06T00:07:59.382Z,5.53
2022-12-06T00:08:31.391Z,5.20
2022-12-06T00:09:03.384Z,4.78
2022-12-06T00:09:36.216Z,5.63
2022-12-06T00:10:08.783Z,5.53
2022-12-06T00:10:41.988Z,5.35
2022-12-06T00:11:16.779Z,5.00
2022-12-06T00:11:48.834Z,5.32
2022-12-06T00:12:21.596Z,5.80
2022-12-06T00:12:53.517Z,13.00
2022-12-06T00:13:25.292Z,15.55
2022-12-06T00:13:59.918Z,10.18
2022-12-06T00:14:31.723Z,9.05
2022-12-06T00:15:04.062Z,10.70
2022-12-06T00:15:37.571Z,11.50
2022-12-06T00:16:12.104Z,11.50
2022-12-06T00:16:44.100Z,7.40
2022-12-06T00:17:16.908Z,5.20
2022-12-06T00:17:48.896Z,6.20
2022-12-06T00:18:20.671Z,7.10
2022-12-06T00:18:53.669Z,7.47
2022-12-06T00:19:25.553Z,7.00
2022-12-06T00:19:57.739Z,9.15
2022-12-06T00:20:30.898Z,11.13
2022-12-06T00:21:07.722Z,15.85
2022-12-06T00:21:41.177Z,10.02
2022-12-06T00:22:12.991Z,7.80
2022-12-06T00:22:45.030Z,11.65
2022-12-06T00:23:17.799Z,13.10
2022-12-06T00:23:51.431Z,14.85
2022-12-06T00:24:23.473Z,20.50
2022-12-06T00:24:56.231Z,11.25
2022-12-06T00:25:28.049Z,11.70
2022-12-06T00:26:03.124Z,13.98
2022-12-06T00:26:37.508Z,14.35
2022-12-06T00:27:09.338Z,14.20
2022-12-06T00:27:41.139Z,15.52
2022-12-06T00:28:13.907Z,12.32
2022-12-06T00:28:46.272Z,11.98
2022-12-06T00:29:20.777Z,12.70
2022-12-06T00:29:53.549Z,12.68
2022-12-06T00:30:25.356Z,13.55
2022-12-06T00:30:58.427Z,11.60
2022-12-06T00:31:32.763Z,11.00
2022-12-06T00:32:05.016Z,9.68
2022-12-06T00:32:36.866Z,9.27
2022-12-06T00:33:09.689Z,9.32
2022-12-06T00:33:41.743Z,9.45
2022-12-06T00:34:14.656Z,10.65
2022-12-06T00:34:46.505Z,8.90
2022-12-06T00:35:18.302Z,8.85
2022-12-06T00:35:56.809Z,11.15
2022-12-06T00:36:31.086Z,6.97
2022-12-06T00:37:03.885Z,6.32
2022-12-06T00:37:35.806Z,5.70
2022-12-06T00:38:07.621Z,6.30
2022-12-06T00:38:40.413Z,5.38
2022-12-06T00:39:15.152Z,5.75
2022-12-06T00:39:46.907Z,8.55
2022-12-06T00:40:19.619Z,5.97
2022-12-06T00:40:57.927Z,6.13
2022-12-06T00:41:31.104Z,5.50
2022-12-06T00:42:03.914Z,5.88
2022-12-06T00:42:35.810Z,5.80
2022-12-06T00:43:07.595Z,5.40
2022-12-06T00:43:41.265Z,6.60
2022-12-06T00:44:13.467Z,6.53
2022-12-06T00:44:45.240Z,7.30
2022-12-06T00:45:18.100Z,6.22
2022-12-06T00:45:49.914Z,5.70
2022-12-06T00:46:24.193Z,5.88
2022-12-06T00:46:57.057Z,5.70
2022-12-06T00:47:28.834Z,6.80
2022-12-06T00:48:00.672Z,8.30
2022-12-06T00:48:33.921Z,6.78
2022-12-06T00:49:06.955Z,6.00
2022-12-06T00:49:38.776Z,6.10
2022-12-06T00:50:12.448Z,8.25
2022-12-06T00:50:44.272Z,15.07
2022-12-06T00:51:17.893Z,17.02
2022-12-06T00:51:50.697Z,11.10
2022-12-06T00:52:22.524Z,8.48
2022-12-06T00:52:54.283Z,7.47
2022-12-06T00:53:27.766Z,6.25
2022-12-06T00:53:59.774Z,7.20
2022-12-06T00:54:31.562Z,6.50
2022-12-06T00:55:04.603Z,6.20
2022-12-06T00:55:36.465Z,6.45
2022-12-06T00:56:08.930Z,6.30
2022-12-06T00:56:43.118Z,6.25
2022-12-06T00:57:14.933Z,6.60
2022-12-06T00:57:47.301Z,6.13
2022-12-06T00:58:20.096Z,5.82
2022-12-06T00:58:51.905Z,5.75
2022-12-06T00:59:23.699Z,6.80
2022-12-06T00:59:56.634Z,5.95
2022-12-06T01:00:28.561Z,7.43
2022-12-06T01:01:08.248Z,7.07
2022-12-06T01:01:42.737Z,6.00
2022-12-06T01:02:15.792Z,6.47
2022-12-06T01:02:47.725Z,6.10
2022-12-06T01:03:19.739Z,7.53
2022-12-06T01:03:56.290Z,6.60
2022-12-06T01:04:28.076Z,6.35
2022-12-06T01:04:59.846Z,6.90
2022-12-06T01:05:32.997Z,6.22
2022-12-06T01:06:06.628Z,5.50
2022-12-06T01:06:39.552Z,6.60
2022-12-06T01:07:11.418Z,6.32
2022-12-06T01:07:43.306Z,5.95
2022-12-06T01:08:17.476Z,7.35
2022-12-06T01:08:49.702Z,6.25
2022-12-06T01:09:22.437Z,5.78
2022-12-06T01:09:54.287Z,7.32
2022-12-06T01:10:26.150Z,6.40
2022-12-06T01:10:59.388Z,5.80
2022-12-06T01:11:31.530Z,6.00
2022-12-06T01:12:04.845Z,6.90
2022-12-06T01:12:38.845Z,6.65
2022-12-06T01:13:10.629Z,7.28
2022-12-06T01:13:43.248Z,6.43
2022-12-06T01:14:16.044Z,6.80
2022-12-06T01:14:48.002Z,6.05
2022-12-06T01:15:19.841Z,6.75
2022-12-06T01:15:51.816Z,6.97
2022-12-06T01:16:26.542Z,6.68
2022-12-06T01:16:58.391Z,6.75
2022-12-06T01:17:30.281Z,6.85
2022-12-06T01:18:03.360Z,6.20
2022-12-06T01:18:35.239Z,6.32
2022-12-06T01:19:07.067Z,6.32
2022-12-06T01:19:39.811Z,6.70
2022-12-06T01:20:11.639Z,6.50
2022-12-06T01:20:43.434Z,5.75
2022-12-06T01:21:18.171Z,6.80
2022-12-06T01:21:49.939Z,5.93
2022-12-06T01:22:22.675Z,13.32
2022-12-06T01:22:54.508Z,11.75
2022-12-06T01:23:26.305Z,15.65
2022-12-06T01:23:59.405Z,8.95
2022-12-06T01:24:31.328Z,12.48
2022-12-06T01:25:03.322Z,9.40
2022-12-06T01:25:36.675Z,7.55
2022-12-06T01:26:14.470Z,8.70
2022-12-06T01:26:47.307Z,7.53
2022-12-06T01:27:20.426Z,7.07
2022-12-06T01:27:52.199Z,6.63
2022-12-06T01:28:25.091Z,5.80
2022-12-06T01:28:58.346Z,6.60
2022-12-06T01:29:31.100Z,6.80
2022-12-06T01:30:03.580Z,7.43
2022-12-06T01:30:35.404Z,6.35
2022-12-06T01:31:07.742Z,7.20
2022-12-06T01:31:40.576Z,6.35
2022-12-06T01:32:12.455Z,6.20
2022-12-06T01:32:44.244Z,7.68
2022-12-06T01:33:16.208Z,5.80
2022-12-06T01:33:49.005Z,6.45
2022-12-06T01:34:20.815Z,7.72
2022-12-06T01:34:53.473Z,6.20
2022-12-06T01:35:26.244Z,7.18
2022-12-06T01:35:58.032Z,6.03
2022-12-06T01:36:29.826Z,6.25
2022-12-06T01:37:02.652Z,6.57
2022-12-06T01:37:34.523Z,6.50
2022-12-06T01:38:06.490Z,5.93
2022-12-06T01:38:38.294Z,6.15
2022-12-06T01:39:12.551Z,6.30
2022-12-06T01:39:44.749Z,7.10
2022-12-06T01:40:16.661Z,6.78
2022-12-06T01:40:49.787Z,6.68
2022-12-06T01:41:23.634Z,6.22
2022-12-06T01:41:56.391Z,5.72
2022-12-06T01:42:29.585Z,7.30
2022-12-06T01:43:01.365Z,5.90
2022-12-06T01:43:35.728Z,6.30
2022-12-06T01:44:24.424Z,6.05
2022-12-06T01:44:57.967Z,6.03
2022-12-06T01:45:29.910Z,6.65
2022-12-06T01:46:08.230Z,6.65
2022-12-06T01:46:43.101Z,6.15
2022-12-06T01:47:19.549Z,5.90
2022-12-06T01:47:51.387Z,6.22
2022-12-06T01:48:26.373Z,6.88
2022-12-06T01:49:06.773Z,6.32
2022-12-06T01:49:39.017Z,6.50
2022-12-06T01:50:16.453Z,6.78
2022-12-06T01:50:49.245Z,6.95
2022-12-06T01:51:21.743Z,7.22
2022-12-06T01:51:58.727Z,6.28
2022-12-06T01:52:35.948Z,5.78
2022-12-06T01:53:11.065Z,7.05
2022-12-06T01:53:46.500Z,6.75
2022-12-06T01:54:19.854Z,6.35
2022-12-06T01:54:53.322Z,7.18
2022-12-06T01:55:29.087Z,7.28
2022-12-06T01:56:01.300Z,6.82
2022-12-06T01:56:34.124Z,6.88
2022-12-06T01:57:09.099Z,6.82
2022-12-06T01:57:42.303Z,6.38
2022-12-06T01:58:20.107Z,5.95
2022-12-06T01:58:54.664Z,7.18
2022-12-06T01:59:28.842Z,7.15
2022-12-06T02:00:01.543Z,7.38
2022-12-06T02:00:34.508Z,7.90
2022-12-06T02:01:08.585Z,6.85
2022-12-06T02:01:41.113Z,6.93
2022-12-06T02:02:13.481Z,6.70
2022-12-06T02:02:46.638Z,7.30
2022-12-06T02:03:21.499Z,7.65
2022-12-06T02:03:54.982Z,7.47
2022-12-06T02:04:29.270Z,7.00
2022-12-06T02:05:02.967Z,6.40
2022-12-06T02:05:40.707Z,6.53
2022-12-06T02:06:13.989Z,6.07
2022-12-06T02:06:46.511Z,6.10
2022-12-06T02:07:19.971Z,6.28
2022-12-06T02:07:54.395Z,5.60
2022-12-06T02:08:27.752Z,6.43
2022-12-06T02:09:01.974Z,6.65
2022-12-06T02:09:35.742Z,6.60
2022-12-06T02:10:08.629Z,6.20
2022-12-06T02:10:40.508Z,7.28
2022-12-06T02:11:12.312Z,6.47
2022-12-06T02:11:47.204Z,7.05
2022-12-06T02:12:19.025Z,6.35
2022-12-06T02:12:56.299Z,5.85
2022-12-06T02:13:30.150Z,7.22
2022-12-06T02:14:04.815Z,6.47
2022-12-06T02:14:37.619Z,7.00
2022-12-06T02:15:10.611Z,6.47
2022-12-06T02:15:54.491Z,5.90
2022-12-06T02:16:42.419Z,6.85
2022-12-06T02:17:30.216Z,6.38
2022-12-06T02:18:12.021Z,5.80
2022-12-06T02:18:50.054Z,7.50
2022-12-06T02:19:50.979Z,7.00
2022-12-06T02:20:32.826Z,6.13
2022-12-06T02:21:16.242Z,6.07
2022-12-06T02:21:54.977Z,6.45
2022-12-06T02:22:36.843Z,6.03
2022-12-06T02:23:32.849Z,6.55
2022-12-06T02:24:40.413Z,6.18
2022-12-06T02:25:43.364Z,6.80
2022-12-06T02:26:37.094Z,6.78
2022-12-06T02:27:32.323Z,6.05
2022-12-06T02:28:37.963Z,5.85
2022-12-06T02:29:49.985Z,5.82
2022-12-06T02:30:45.305Z,6.85
2022-12-06T02:31:24.003Z,5.45
2022-12-06T02:32:00.003Z,6.60
2022-12-06T02:32:36.632Z,7.40
2022-12-06T02:33:11.105Z,6.68
2022-12-06T02:33:49.669Z,7.32
2022-12-06T02:34:31.348Z,6.95
2022-12-06T02:35:11.313Z,6.95
2022-12-06T02:35:49.083Z,7.80
2022-12-06T02:36:28.791Z,6.75
2022-12-06T02:37:09.022Z,6.65
2022-12-06T02:37:46.866Z,7.13
2022-12-06T02:38:26.756Z,7.15
2022-12-06T02:39:04.970Z,6.18
2022-12-06T02:39:42.503Z,6.90
2022-12-06T02:40:20.687Z,8.30
2022-12-06T02:40:57.383Z,7.50
2022-12-06T02:41:35.479Z,7.70
2022-12-06T02:42:16.461Z,6.95
2022-12-06T02:42:53.384Z,7.43
2022-12-06T02:43:29.000Z,7.05
2022-12-06T02:44:06.433Z,7.30
2022-12-06T02:44:41.893Z,7.65
2022-12-06T02:45:19.584Z,7.70
2022-12-06T02:45:56.395Z,7.18
2022-12-06T02:46:32.292Z,6.78
2022-12-06T02:47:08.683Z,8.30
2022-12-06T02:47:42.446Z,6.63
2022-12-06T02:48:17.458Z,7.47
2022-12-06T02:48:53.148Z,7.30
2022-12-06T02:49:28.053Z,7.32
2022-12-06T02:50:02.330Z,6.55
2022-12-06T02:50:37.494Z,7.55
2022-12-06T02:51:13.279Z,7.28
2022-12-06T02:51:48.520Z,7.25
2022-12-06T02:52:24.151Z,7.45
2022-12-06T02:52:59.891Z,7.15
2022-12-06T02:53:35.292Z,6.55
2022-12-06T02:54:09.915Z,8.73
2022-12-06T02:54:45.113Z,8.75
2022-12-06T02:55:19.338Z,7.40
2022-12-06T02:55:52.116Z,6.53
2022-12-06T02:56:24.459Z,7.03
2022-12-06T02:56:57.281Z,7.50
2022-12-06T02:57:39.496Z,8.30
2022-12-06T02:58:11.574Z,6.95
2022-12-06T02:58:44.342Z,7.80
2022-12-06T02:59:16.133Z,7.57
2022-12-06T02:59:52.664Z,6.57
2022-12-06T03:00:35.462Z,7.63
2022-12-06T03:01:12.571Z,7.10
2022-12-06T03:01:50.203Z,7.25
2022-12-06T03:02:22.779Z,6.65
2022-12-06T03:03:04.246Z,7.25
2022-12-06T03:03:47.667Z,7.65
2022-12-06T03:04:47.385Z,6.47
2022-12-06T03:05:27.169Z,6.80
2022-12-06T03:06:16.527Z,7.18
2022-12-06T03:07:03.286Z,6.35
2022-12-06T03:07:39.818Z,7.15
2022-12-06T03:08:19.517Z,7.50
2022-12-06T03:09:05.711Z,8.25
2022-12-06T03:09:49.615Z,7.13
2022-12-06T03:10:39.602Z,7.88
2022-12-06T03:11:12.325Z,7.47
2022-12-06T03:11:53.289Z,7.07
2022-12-06T03:12:32.755Z,7.93
2022-12-06T03:13:12.885Z,7.28
2022-12-06T03:13:54.121Z,6.93
2022-12-06T03:14:29.378Z,6.35
2022-12-06T03:15:10.931Z,7.15
2022-12-06T03:15:49.818Z,7.70
2022-12-06T03:16:29.413Z,7.15
2022-12-06T03:17:09.047Z,8.55
2022-12-06T03:17:47.077Z,8.43
2022-12-06T03:18:23.928Z,7.60
2022-12-06T03:18:59.652Z,6.97
2022-12-06T03:19:33.615Z,8.30
2022-12-06T03:20:12.157Z,7.45
2022-12-06T03:20:49.655Z,8.18
2022-12-06T03:21:25.640Z,7.50
2022-12-06T03:22:03.244Z,8.35
2022-12-06T03:22:40.150Z,7.65
2022-12-06T03:23:15.519Z,7.57
2022-12-06T03:23:51.224Z,7.55
2022-12-06T03:24:23.958Z,8.13
2022-12-06T03:24:56.125Z,8.80
2022-12-06T03:25:30.012Z,7.05
2022-12-06T03:26:02.833Z,7.40
2022-12-06T03:26:36.227Z,6.72
2022-12-06T03:27:12.071Z,9.05
2022-12-06T03:27:44.976Z,7.43
2022-12-06T03:28:19.002Z,7.80
2022-12-06T03:28:55.873Z,7.90
2022-12-06T03:29:31.575Z,7.80
2022-12-06T03:30:08.306Z,7.55
2022-12-06T03:30:45.090Z,7.65
2022-12-06T03:31:16.999Z,7.57
2022-12-06T03:31:51.793Z,7.60
2022-12-06T03:32:27.294Z,7.38
2022-12-06T03:32:59.657Z,7.32
2022-12-06T03:33:34.601Z,8.13
2022-12-06T03:34:13.277Z,7.25
2022-12-06T03:34:49.896Z,7.82
2022-12-06T03:35:28.319Z,8.07
2022-12-06T03:36:02.334Z,6.40
2022-12-06T03:36:34.778Z,6.47
2022-12-06T03:37:09.797Z,6.95
2022-12-06T03:37:45.917Z,7.97
2022-12-06T03:38:23.460Z,7.60
2022-12-06T03:38:58.231Z,7.13
2022-12-06T03:39:36.479Z,7.13
2022-12-06T03:40:15.249Z,7.95
2022-12-06T03:40:51.023Z,7.00
2022-12-06T03:41:29.808Z,7.40
2022-12-06T03:42:02.944Z,7.45
2022-12-06T03:42:35.513Z,6.78
2022-12-06T03:43:08.759Z,7.72
2022-12-06T03:43:40.567Z,7.03
2022-12-06T03:44:12.442Z,7.22
2022-12-06T03:44:45.451Z,8.13
2022-12-06T03:45:18.834Z,7.78
2022-12-06T03:45:55.890Z,5.65
2022-12-06T03:46:33.621Z,6.97
2022-12-06T03:47:11.153Z,7.50
2022-12-06T03:47:50.252Z,7.82
2022-12-06T03:48:27.597Z,8.55
2022-12-06T03:49:02.095Z,7.53
2022-12-06T03:49:39.873Z,7.10
2022-12-06T03:50:17.592Z,7.20
2022-12-06T03:50:58.339Z,9.00
2022-12-06T03:51:34.352Z,8.00
2022-12-06T03:52:06.515Z,8.00
2022-12-06T03:52:39.311Z,7.20
2022-12-06T03:53:12.425Z,7.18
2022-12-06T03:53:48.711Z,7.38
2022-12-06T03:54:20.602Z,7.05
2022-12-06T03:54:53.371Z,7.22
2022-12-06T03:55:25.168Z,7.50
2022-12-06T03:55:56.976Z,8.10
2022-12-06T03:56:30.161Z,6.90
2022-12-06T03:57:01.932Z,7.90
2022-12-06T03:57:34.083Z,6.90
2022-12-06T03:58:06.864Z,8.18
2022-12-06T03:58:38.645Z,7.75
2022-12-06T03:59:11.391Z,7.07
2022-12-06T03:59:44.155Z,7.50
2022-12-06T04:00:16.794Z,7.70
2022-12-06T04:00:49.590Z,8.10
2022-12-06T04:01:21.425Z,7.80
2022-12-06T04:01:53.284Z,7.72
2022-12-06T04:02:27.420Z,8.13
2022-12-06T04:02:59.219Z,7.82
2022-12-06T04:03:31.129Z,6.65
2022-12-06T04:04:04.242Z,8.00
2022-12-06T04:04:36.095Z,7.70
2022-12-06T04:05:08.550Z,7.75
2022-12-06T04:05:41.349Z,8.00
2022-12-06T04:06:13.968Z,6.75
2022-12-06T04:06:45.784Z,7.07
2022-12-06T04:07:21.170Z,8.52
2022-12-06T04:07:53.051Z,8.43
2022-12-06T04:08:25.930Z,8.00
2022-12-06T04:09:18.699Z,8.00
2022-12-06T04:09:56.066Z,8.55
2022-12-06T04:10:27.915Z,8.15
2022-12-06T04:10:59.828Z,8.32
2022-12-06T04:11:32.574Z,7.72
2022-12-06T04:12:25.058Z,7.60
2022-12-06T04:13:02.752Z,6.82
2022-12-06T04:13:35.620Z,7.20
2022-12-06T04:14:08.500Z,8.25
2022-12-06T04:14:40.292Z,6.85
2022-12-06T04:15:12.051Z,7.25
2022-12-06T04:15:44.951Z,7.88
2022-12-06T04:16:37.565Z,8.25
2022-12-06T04:17:28.128Z,7.80
2022-12-06T04:18:11.113Z,7.55
2022-12-06T04:18:42.899Z,7.95
2022-12-06T04:19:14.672Z,7.57
2022-12-06T04:19:51.939Z,7.28
2022-12-06T04:20:24.357Z,7.32
2022-12-06T04:21:17.070Z,7.45
2022-12-06T04:22:18.811Z,7.97
2022-12-06T04:23:05.445Z,6.78
2022-12-06T04:23:40.721Z,7.13
2022-12-06T04:24:12.475Z,7.03
2022-12-06T04:24:44.291Z,6.65
2022-12-06T04:25:16.244Z,7.45
2022-12-06T04:25:49.068Z,7.85
2022-12-06T04:26:22.239Z,7.40
2022-12-06T04:27:14.164Z,7.97
2022-12-06T04:28:04.528Z,7.45
2022-12-06T04:28:54.876Z,8.02
2022-12-06T04:29:45.287Z,6.47
2022-12-06T04:30:35.883Z,7.60
2022-12-06T04:31:26.494Z,6.55
2022-12-06T04:32:16.767Z,7.45
2022-12-06T04:33:07.092Z,7.40
2022-12-06T04:33:58.784Z,7.53
2022-12-06T04:34:49.273Z,6.25
2022-12-06T04:35:39.679Z,6.95
2022-12-06T04:36:30.143Z,8.20
2022-12-06T04:37:20.490Z,6.88
2022-12-06T04:38:11.018Z,8.55
2022-12-06T04:38:44.623Z,6.90
2022-12-06T04:39:20.654Z,6.85
2022-12-06T04:39:53.984Z,6.90
2022-12-06T04:40:25.775Z,6.72
2022-12-06T04:40:57.552Z,7.78
2022-12-06T04:41:47.782Z,7.03
2022-12-06T04:42:38.305Z,7.22
2022-12-06T04:43:28.855Z,7.55
2022-12-06T04:44:00.657Z,8.55
2022-12-06T04:44:33.401Z,7.30
2022-12-06T04:45:06.484Z,8.15
2022-12-06T04:45:38.259Z,7.75
2022-12-06T04:46:11.780Z,7.53
2022-12-06T04:46:43.752Z,7.82
2022-12-06T04:47:16.594Z,7.90
2022-12-06T04:47:48.382Z,8.07
2022-12-06T04:48:20.162Z,7.25
2022-12-06T04:48:54.301Z,8.32
2022-12-06T04:49:26.378Z,9.00
2022-12-06T04:49:58.582Z,8.10
2022-12-06T04:50:31.576Z,7.68
2022-12-06T04:51:03.476Z,7.60
2022-12-06T04:51:35.240Z,7.85
2022-12-06T04:52:09.561Z,8.52
2022-12-06T04:52:41.356Z,8.30
2022-12-06T04:53:13.179Z,7.53
2022-12-06T04:53:46.104Z,7.88
2022-12-06T04:54:17.999Z,7.85
2022-12-06T04:54:50.777Z,7.72
2022-12-06T04:55:22.552Z,7.00
2022-12-06T04:55:54.400Z,7.95
2022-12-06T04:56:26.249Z,7.07
2022-12-06T04:56:59.760Z,7.70
2022-12-06T04:57:31.660Z,6.95
2022-12-06T04:58:03.460Z,7.43
2022-12-06T04:58:35.269Z,8.10
2022-12-06T04:59:08.059Z,6.78
2022-12-06T04:59:42.271Z,6.65
2022-12-06T05:00:15.401Z,6.53
2022-12-06T05:00:50.634Z,7.28
2022-12-06T05:01:22.591Z,8.13
2022-12-06T05:01:54.995Z,7.07
2022-12-06T05:02:27.763Z,7.28
2022-12-06T05:02:59.551Z,7.30
2022-12-06T05:03:31.438Z,7.13
2022-12-06T05:04:05.040Z,6.85
2022-12-06T05:04:37.901Z,7.90
2022-12-06T05:05:09.883Z,7.70
2022-12-06T05:05:42.320Z,7.80
2022-12-06T05:06:15.157Z,8.48
2022-12-06T05:06:47.516Z,8.30
2022-12-06T05:07:20.305Z,8.45
2022-12-06T05:07:52.160Z,7.68
2022-12-06T05:08:24.137Z,8.65
2022-12-06T05:08:56.016Z,8.10
2022-12-06T05:09:28.828Z,7.55
2022-12-06T05:10:00.927Z,8.25
2022-12-06T05:10:33.620Z,8.02
2022-12-06T05:11:06.887Z,7.07
2022-12-06T05:11:38.896Z,7.90
2022-12-06T05:12:11.650Z,8.70
2022-12-06T05:12:43.454Z,8.05
2022-12-06T05:13:15.770Z,7.53
2022-12-06T05:13:47.736Z,7.40
2022-12-06T05:14:20.548Z,7.97
2022-12-06T05:14:52.359Z,7.22
2022-12-06T05:15:28.931Z,7.38
2022-12-06T05:16:02.685Z,7.97
2022-12-06T05:16:35.553Z,8.95
2022-12-06T05:17:07.459Z,8.60
2022-12-06T05:17:39.397Z,7.32
2022-12-06T05:18:12.156Z,8.65
2022-12-06T05:18:44.055Z,9.75
2022-12-06T05:19:17.177Z,9.07
2022-12-06T05:19:49.920Z,8.25
2022-12-06T05:20:21.756Z,8.32
2022-12-06T05:21:02.089Z,8.30
2022-12-06T05:21:35.115Z,8.35
2022-12-06T05:22:06.887Z,8.45
2022-12-06T05:22:38.685Z,8.48
2022-12-06T05:23:10.511Z,8.55
2022-12-06T05:23:43.382Z,8.32
2022-12-06T05:24:15.230Z,8.48
2022-12-06T05:24:48.031Z,8.68
2022-12-06T05:25:19.843Z,8.25
2022-12-06T05:25:56.951Z,7.35
2022-12-06T05:26:30.224Z,8.80
2022-12-06T05:27:02.020Z,9.57
2022-12-06T05:27:36.070Z,8.93
2022-12-06T05:28:08.899Z,8.48
2022-12-06T05:28:41.820Z,10.00
2022-12-06T05:29:13.588Z,8.20
2022-12-06T05:29:45.375Z,8.95
2022-12-06T05:30:18.460Z,9.75
2022-12-06T05:30:50.258Z,9.45
2022-12-06T05:31:23.048Z,8.65
2022-12-06T05:31:55.920Z,8.60
2022-12-06T05:32:27.816Z,9.00
2022-12-06T05:32:59.626Z,9.02
2022-12-06T05:33:32.487Z,10.63
2022-12-06T05:34:04.329Z,10.30
2022-12-06T05:34:38.467Z,10.45
2022-12-06T05:35:10.283Z,8.20
2022-12-06T05:35:42.055Z,8.80
2022-12-06T05:36:15.755Z,9.07
2022-12-06T05:36:48.518Z,9.02
2022-12-06T05:37:20.276Z,9.20
2022-12-06T05:37:52.142Z,8.82
2022-12-06T05:38:25.015Z,8.70
2022-12-06T05:38:56.895Z,8.85
2022-12-06T05:39:29.259Z,10.20
2022-12-06T05:40:02.659Z,9.18
2022-12-06T05:40:34.752Z,9.02
2022-12-06T05:41:06.912Z,9.93
2022-12-06T05:41:39.655Z,9.05
2022-12-06T05:42:13.426Z,9.60
2022-12-06T05:42:49.469Z,8.68
2022-12-06T05:43:22.252Z,9.60
2022-12-06T05:43:54.075Z,8.75
2022-12-06T05:44:25.847Z,10.75
2022-12-06T05:44:58.620Z,10.25
2022-12-06T05:45:30.681Z,10.07
2022-12-06T05:46:02.675Z,9.02
2022-12-06T05:46:35.506Z,8.98
2022-12-06T05:47:07.683Z,9.68
2022-12-06T05:47:40.073Z,9.90
2022-12-06T05:48:12.854Z,10.70
2022-12-06T05:48:45.021Z,10.27
2022-12-06T05:49:17.777Z,9.15
2022-12-06T05:49:51.182Z,10.10
2022-12-06T05:50:22.995Z,10.35
2022-12-06T05:50:55.791Z,9.77
2022-12-06T05:51:27.619Z,10.27
2022-12-06T05:52:03.989Z,9.70
2022-12-06T05:52:36.057Z,9.95
2022-12-06T05:53:07.872Z,9.90
2022-12-06T05:53:41.218Z,12.23
2022-12-06T05:54:12.987Z,10.68
2022-12-06T05:54:44.779Z,11.63
2022-12-06T05:55:17.671Z,9.90
2022-12-06T05:55:49.577Z,11.27
2022-12-06T05:56:22.339Z,11.05
2022-12-06T05:56:55.408Z,10.57
2022-12-06T05:57:27.184Z,11.65
2022-12-06T05:57:59.003Z,11.25
2022-12-06T05:58:31.761Z,11.18
2022-12-06T05:59:03.684Z,12.15
2022-12-06T05:59:35.479Z,11.15
2022-12-06T06:00:10.280Z,10.52
2022-12-06T06:00:42.366Z,12.38
2022-12-06T06:01:15.161Z,11.50
2022-12-06T06:01:46.986Z,10.45
2022-12-06T06:02:19.002Z,11.80
2022-12-06T06:02:51.864Z,12.48
2022-12-06T06:03:24.468Z,11.38
2022-12-06T06:03:56.319Z,11.38
2022-12-06T06:04:29.118Z,11.20
2022-12-06T06:05:02.358Z,12.15
2022-12-06T06:05:34.200Z,11.35
2022-12-06T06:06:07.527Z,11.82
2022-12-06T06:06:39.354Z,11.40
2022-12-06T06:07:11.153Z,11.65
2022-12-06T06:07:44.021Z,11.73
2022-12-06T06:08:16.128Z,11.70
2022-12-06T06:08:48.922Z,11.80
2022-12-06T06:09:21.190Z,13.43
2022-12-06T06:09:52.959Z,11.57
2022-12-06T06:10:26.209Z,14.23
2022-12-06T06:10:58.882Z,13.50
2022-12-06T06:11:30.696Z,12.95
2022-12-06T06:12:06.866Z,12.40
2022-12-06T06:12:41.287Z,12.10
2022-12-06T06:13:13.178Z,11.35
2022-12-06T06:13:45.951Z,10.93
2022-12-06T06:14:17.791Z,11.95
2022-12-06T06:14:49.731Z,11.38
2022-12-06T06:15:22.501Z,12.73
2022-12-06T06:15:54.787Z,12.80
2022-12-06T06:16:27.723Z,12.50
2022-12-06T06:16:59.603Z,11.80
2022-12-06T06:17:31.407Z,13.30
2022-12-06T06:18:04.530Z,14.10
2022-12-06T06:18:36.394Z,12.88
2022-12-06T06:19:08.189Z,12.30
2022-12-06T06:19:40.992Z,13.00
2022-12-06T06:20:14.352Z,12.35
2022-12-06T06:20:50.134Z,11.57
2022-12-06T06:21:22.913Z,12.75
2022-12-06T06:21:54.761Z,13.07
2022-12-06T06:22:26.630Z,12.57
2022-12-06T06:22:59.442Z,11.20
2022-12-06T06:23:31.363Z,12.60
2022-12-06T06:24:03.393Z,12.25
2022-12-06T06:24:37.288Z,13.15
2022-12-06T06:25:10.347Z,12.38
2022-12-06T06:25:42.129Z,12.85
2022-12-06T06:26:14.951Z,13.27
2022-12-06T06:26:46.744Z,11.55
2022-12-06T06:27:18.545Z,12.48
2022-12-06T06:27:51.387Z,12.57
2022-12-06T06:28:23.682Z,11.77
2022-12-06T06:28:55.617Z,12.50
2022-12-06T06:29:28.452Z,12.70
2022-12-06T06:30:00.760Z,13.02
2022-12-06T06:30:33.696Z,11.57
2022-12-06T06:31:06.514Z,11.95
2022-12-06T06:31:39.390Z,12.23
2022-12-06T06:32:12.483Z,12.50
2022-12-06T06:32:44.442Z,12.23
2022-12-06T06:33:17.266Z,12.93
2022-12-06T06:33:49.149Z,12.35
2022-12-06T06:34:21.046Z,11.55
2022-12-06T06:34:53.881Z,12.50
2022-12-06T06:35:27.322Z,12.02
2022-12-06T06:36:00.344Z,11.68
2022-12-06T06:36:32.254Z,12.43
2022-12-06T06:37:04.012Z,12.20
2022-12-06T06:37:36.784Z,13.48
2022-12-06T06:38:08.614Z,12.30
2022-12-06T06:38:40.535Z,13.05
2022-12-06T06:39:13.421Z,12.63
2022-12-06T06:39:45.174Z,12.48
2022-12-06T06:40:17.172Z,12.00
2022-12-06T06:40:49.904Z,14.07
2022-12-06T06:41:21.712Z,13.15
2022-12-06T06:41:53.499Z,13.73
2022-12-06T06:42:26.330Z,12.20
2022-12-06T06:42:58.149Z,13.10
2022-12-06T06:43:30.329Z,14.15
2022-12-06T06:44:03.629Z,12.98
2022-12-06T06:44:35.466Z,12.90
2022-12-06T06:45:08.445Z,12.80
2022-12-06T06:45:41.258Z,14.13
2022-12-06T06:46:13.245Z,14.40
2022-12-06T06:46:46.076Z,12.73
2022-12-06T06:47:17.872Z,13.07
2022-12-06T06:47:49.733Z,13.70
2022-12-06T06:48:23.480Z,12.48
2022-12-06T06:48:55.282Z,13.05
2022-12-06T06:49:27.177Z,14.15
2022-12-06T06:50:00.252Z,12.43
2022-12-06T06:50:33.723Z,15.15
2022-12-06T06:51:08.119Z,14.13
2022-12-06T06:51:40.009Z,12.13
2022-12-06T06:52:11.833Z,12.20
2022-12-06T06:52:44.700Z,13.50
2022-12-06T06:53:16.692Z,12.45
2022-12-06T06:53:48.479Z,13.20
2022-12-06T06:54:21.648Z,13.13
2022-12-06T06:54:53.462Z,15.02
2022-12-06T06:55:25.271Z,15.27
2022-12-06T06:55:58.437Z,14.05
2022-12-06T06:56:30.273Z,14.32
2022-12-06T06:57:02.832Z,16.10
2022-12-06T06:57:36.159Z,13.40
2022-12-06T06:58:08.291Z,14.05
2022-12-06T06:58:40.299Z,15.52
2022-12-06T06:59:13.162Z,17.00
2022-12-06T06:59:45.369Z,19.83
2022-12-06T07:00:18.605Z,13.55
2022-12-06T07:00:54.211Z,12.82
2022-12-06T07:01:27.831Z,12.65
2022-12-06T07:02:00.770Z,12.57
2022-12-06T07:02:32.677Z,13.02
2022-12-06T07:03:04.763Z,14.35
2022-12-06T07:03:37.532Z,13.35
2022-12-06T07:04:09.330Z,12.20
2022-12-06T07:04:42.241Z,12.73
2022-12-06T07:05:15.082Z,13.35
2022-12-06T07:05:53.262Z,13.95
2022-12-06T07:06:26.099Z,14.18
2022-12-06T07:06:57.928Z,13.10
2022-12-06T07:07:29.703Z,12.18
2022-12-06T07:08:02.466Z,13.45
2022-12-06T07:08:34.390Z,14.18
2022-12-06T07:09:06.187Z,14.52
2022-12-06T07:09:39.437Z,12.75
2022-12-06T07:10:12.104Z,14.95
2022-12-06T07:10:48.488Z,13.68
2022-12-06T07:11:21.292Z,13.02
2022-12-06T07:11:54.017Z,13.77
2022-12-06T07:12:25.829Z,13.38
2022-12-06T07:12:58.668Z,13.35
2022-12-06T07:13:31.340Z,13.45
2022-12-06T07:14:03.714Z,15.00
2022-12-06T07:14:36.548Z,14.40
2022-12-06T07:15:09.332Z,14.65
2022-12-06T07:15:42.158Z,13.65
2022-12-06T07:16:15.966Z,12.82
2022-12-06T07:16:48.816Z,13.43
2022-12-06T07:17:20.707Z,13.50
2022-12-06T07:17:53.768Z,13.60
2022-12-06T07:18:27.029Z,12.70
2022-12-06T07:18:58.825Z,13.98
2022-12-06T07:19:31.581Z,14.02
2022-12-06T07:20:03.883Z,13.98
2022-12-06T07:20:35.979Z,13.77
2022-12-06T07:21:11.931Z,13.65
2022-12-06T07:21:43.961Z,13.40
2022-12-06T07:22:16.781Z,14.40
2022-12-06T07:22:48.567Z,12.90
2022-12-06T07:23:20.356Z,13.77
2022-12-06T07:23:53.151Z,13.82
2022-12-06T07:24:24.991Z,14.98
2022-12-06T07:24:56.783Z,13.20
2022-12-06T07:25:29.850Z,14.23
2022-12-06T07:26:02.761Z,13.98
2022-12-06T07:26:35.643Z,13.10
2022-12-06T07:27:07.425Z,12.82
2022-12-06T07:27:39.183Z,14.38
2022-12-06T07:28:12.143Z,13.65
2022-12-06T07:28:45.451Z,12.95
2022-12-06T07:29:18.262Z,13.85
2022-12-06T07:29:50.123Z,13.20
2022-12-06T07:30:27.386Z,15.25
2022-12-06T07:31:07.833Z,13.13
2022-12-06T07:31:41.126Z,14.38
2022-12-06T07:32:12.981Z,13.70
2022-12-06T07:32:44.771Z,12.75
2022-12-06T07:33:17.540Z,14.18
2022-12-06T07:33:52.343Z,15.48
2022-12-06T07:34:25.109Z,13.57
2022-12-06T07:34:57.064Z,13.60
2022-12-06T07:35:48.405Z,15.30